Time;durP1;ratioP1;P1;durP2;ratioP2;P2;SDS_P1;SDS_P2;PMS_P1;PMS_P2;Temp;Humidity;BMP_temperature;BMP_pressure;BME280_temperature;BME280_humidity;BME280_pressure;Samples;Min_cycle;Max_cycle;Signal;HPM_P1;HPM_P2
2022/07/11 00:00:17;;;;;;;7.95;5.88;;;13.70;99.90;;;;;;5063621;28;20055;-93
2022/07/11 00:02:42;;;;;;;6.70;5.40;;;13.70;99.90;;;;;;5068355;28;20034;-93
2022/07/11 00:05:09;;;;;;;8.32;6.30;;;13.60;99.90;;;;;;5065600;28;20043;-92
2022/07/11 00:07:35;;;;;;;9.57;6.63;;;13.50;99.90;;;;;;5063503;28;20021;-93
2022/07/11 00:10:03;;;;;;;7.70;6.53;;;13.40;99.90;;;;;;5064580;28;20028;-92
2022/07/11 00:12:29;;;;;;;8.85;6.82;;;13.40;99.90;;;;;;5065333;28;20036;-92
2022/07/11 00:14:55;;;;;;;9.18;6.30;;;13.30;99.90;;;;;;5065981;28;20075;-92
2022/07/11 00:17:24;;;;;;;8.25;6.28;;;13.30;99.90;;;;;;5062470;28;20020;-93
2022/07/11 00:19:50;;;;;;;9.27;6.60;;;13.20;99.90;;;;;;5062371;28;20029;-93
2022/07/11 00:22:16;;;;;;;10.35;7.00;;;13.20;99.90;;;;;;5061778;28;20071;-93
2022/07/11 00:24:42;;;;;;;8.73;6.88;;;13.20;99.90;;;;;;5062065;28;20032;-93
2022/07/11 00:27:07;;;;;;;7.47;6.63;;;13.20;99.90;;;;;;5063184;28;20033;-93
2022/07/11 00:30:08;;;;;;;8.65;7.10;;;13.20;99.90;;;;;;5062516;28;20434;-95
2022/07/11 00:32:33;;;;;;;10.40;7.57;;;13.10;99.90;;;;;;5061914;28;20024;-92
2022/07/11 00:35:00;;;;;;;8.93;7.45;;;13.10;99.90;;;;;;5061645;28;20494;-92
2022/07/11 00:37:25;;;;;;;8.60;7.25;;;13.20;99.90;;;;;;5062052;28;20033;-93
2022/07/11 00:39:51;;;;;;;8.05;7.00;;;13.20;99.90;;;;;;5062173;28;20364;-94
2022/07/11 00:42:17;;;;;;;9.02;6.40;;;13.30;99.90;;;;;;5061865;28;20024;-93
2022/07/11 00:45:05;;;;;;;9.30;7.47;;;13.30;99.90;;;;;;5062215;28;20033;-94
2022/07/11 00:47:31;;;;;;;9.75;6.95;;;13.30;99.90;;;;;;5061623;28;20028;-93
2022/07/11 00:49:56;;;;;;;9.48;7.28;;;13.30;99.90;;;;;;5062136;28;20178;-93
2022/07/11 00:52:48;;;;;;;9.57;7.88;;;13.30;99.90;;;;;;5062288;28;20159;-93
2022/07/11 00:55:13;;;;;;;11.00;8.40;;;13.40;99.90;;;;;;5062045;28;20043;-92
2022/07/11 00:57:39;;;;;;;7.22;6.35;;;13.40;99.90;;;;;;5061513;28;20029;-93
2022/07/11 01:00:06;;;;;;;9.77;7.47;;;13.40;99.90;;;;;;5061648;28;20032;-94
2022/07/11 01:03:00;;;;;;;11.35;7.35;;;13.40;99.90;;;;;;5061830;28;20032;-93
2022/07/11 01:05:27;;;;;;;11.38;8.10;;;13.40;99.90;;;;;;5061962;28;20028;-92
2022/07/11 01:07:53;;;;;;;11.27;7.07;;;13.40;99.90;;;;;;5061286;28;20017;-93
2022/07/11 01:10:18;;;;;;;9.15;7.88;;;13.40;99.90;;;;;;5061803;28;20046;-94
2022/07/11 01:12:44;;;;;;;10.80;7.68;;;13.40;99.90;;;;;;5061695;28;20056;-94
2022/07/11 01:15:13;;;;;;;10.68;7.35;;;13.40;99.90;;;;;;5061448;28;20055;-93
2022/07/11 01:17:39;;;;;;;11.45;7.57;;;13.40;99.90;;;;;;5077183;28;20036;-92
2022/07/11 01:20:39;;;;;;;9.05;7.60;;;13.40;99.90;;;;;;5061315;28;20025;-93
2022/07/11 01:23:08;;;;;;;10.20;7.78;;;13.40;99.90;;;;;;5060712;28;20028;-93
2022/07/11 01:25:37;;;;;;;11.25;7.00;;;13.40;99.90;;;;;;5061349;28;20032;-93
2022/07/11 01:28:08;;;;;;;10.93;7.80;;;13.40;99.90;;;;;;5061145;28;20028;-92
2022/07/11 01:30:34;;;;;;;10.77;7.40;;;13.40;99.90;;;;;;5060874;28;20499;-93
2022/07/11 01:33:00;;;;;;;9.70;8.40;;;13.40;99.90;;;;;;5060806;28;20094;-93
2022/07/11 01:35:28;;;;;;;9.38;7.85;;;13.40;99.90;;;;;;5060786;28;20055;-92
2022/07/11 01:37:54;;;;;;;8.20;7.40;;;13.50;99.90;;;;;;5060982;28;20040;-93
2022/07/11 01:40:20;;;;;;;11.43;9.05;;;13.40;99.90;;;;;;5060858;28;20476;-95
2022/07/11 01:42:46;;;;;;;11.00;8.73;;;13.40;99.90;;;;;;5060493;28;20483;-92
2022/07/11 01:45:12;;;;;;;9.85;8.85;;;13.40;99.90;;;;;;5060460;28;20048;-94
2022/07/11 01:47:41;;;;;;;10.60;8.48;;;13.40;99.90;;;;;;5060713;28;20052;-93
2022/07/11 01:50:07;;;;;;;11.23;9.27;;;13.40;99.90;;;;;;5060658;28;20024;-92
2022/07/11 01:52:33;;;;;;;10.57;8.68;;;13.40;99.90;;;;;;5060118;28;20027;-94
2022/07/11 01:54:59;;;;;;;13.25;9.65;;;13.40;99.90;;;;;;5060497;28;20028;-93
2022/07/11 01:57:24;;;;;;;10.80;9.65;;;13.40;99.90;;;;;;5060715;28;20025;-91
2022/07/11 01:59:50;;;;;;;10.98;9.60;;;13.40;99.90;;;;;;5060293;28;20028;-93
2022/07/11 02:02:16;;;;;;;17.50;10.60;;;13.40;99.90;;;;;;5060077;28;20048;-92
2022/07/11 02:04:42;;;;;;;11.88;9.93;;;13.40;99.90;;;;;;5059983;28;20039;-94
2022/07/11 02:07:09;;;;;;;12.05;9.95;;;13.40;99.90;;;;;;5060117;28;20021;-92
2022/07/11 02:09:35;;;;;;;15.90;10.55;;;13.40;99.90;;;;;;5060287;28;20407;-92
2022/07/11 02:12:38;;;;;;;11.52;9.82;;;13.30;99.90;;;;;;5076740;28;20110;-93
2022/07/11 02:15:04;;;;;;;14.25;10.95;;;13.40;99.90;;;;;;5059807;28;20028;-93
2022/07/11 02:17:36;;;;;;;14.68;10.85;;;13.40;99.90;;;;;;5060294;28;20036;-93
2022/07/11 02:20:02;;;;;;;15.02;10.90;;;13.40;99.90;;;;;;5060705;28;20039;-93
2022/07/11 02:22:29;;;;;;;14.10;11.77;;;13.40;99.90;;;;;;5060340;28;20020;-92
2022/07/11 02:24:55;;;;;;;14.00;11.27;;;13.40;99.90;;;;;;5059776;28;20039;-92
2022/07/11 02:27:21;;;;;;;16.85;11.95;;;13.40;99.90;;;;;;5059286;28;20123;-94
2022/07/11 02:29:47;;;;;;;13.00;10.82;;;13.40;99.90;;;;;;5059783;28;20067;-94
2022/07/11 02:32:12;;;;;;;13.43;11.02;;;13.40;99.90;;;;;;5076220;28;20084;-92
2022/07/11 02:35:00;;;;;;;14.05;11.10;;;13.40;99.90;;;;;;5060015;28;20029;-95
2022/07/11 02:37:26;;;;;;;14.88;11.00;;;13.40;99.90;;;;;;5059883;28;20028;-92
2022/07/11 02:39:52;;;;;;;15.57;11.55;;;13.50;99.90;;;;;;5060121;28;20104;-93
2022/07/11 02:42:20;;;;;;;20.83;11.32;;;13.50;99.90;;;;;;5059841;28;20499;-92
2022/07/11 02:44:46;;;;;;;13.00;11.15;;;13.50;99.90;;;;;;5076945;28;20498;-93
2022/07/11 02:47:14;;;;;;;14.35;10.70;;;13.50;99.90;;;;;;5059490;28;20123;-93
2022/07/11 02:49:40;;;;;;;13.40;11.10;;;13.60;99.90;;;;;;5060098;28;20498;-94
2022/07/11 02:55:54;;;;;;;19.38;12.95;;;13.50;99.90;;;;;;5078018;28;20024;-93
2022/07/11 02:58:20;;;;;;;19.08;12.65;;;13.50;99.90;;;;;;5060384;28;20039;-93
2022/07/11 03:00:45;;;;;;;17.48;12.85;;;13.50;99.90;;;;;;5059833;28;20048;-93
2022/07/11 03:03:11;;;;;;;19.83;12.75;;;13.50;99.90;;;;;;5059776;28;20029;-93
2022/07/11 03:05:37;;;;;;;17.70;12.35;;;13.50;99.90;;;;;;5059557;28;20037;-94
2022/07/11 03:08:03;;;;;;;17.95;13.15;;;13.50;99.90;;;;;;5059555;28;20472;-93
2022/07/11 03:10:28;;;;;;;16.67;12.40;;;13.50;99.90;;;;;;5059782;28;20095;-92
2022/07/11 03:12:54;;;;;;;16.88;13.45;;;13.50;99.90;;;;;;5059985;28;20029;-92
2022/07/11 03:15:21;;;;;;;18.92;13.38;;;13.40;99.90;;;;;;5059031;28;20516;-93
2022/07/11 03:17:47;;;;;;;18.02;13.07;;;13.50;99.90;;;;;;5059499;28;20037;-93
2022/07/11 03:20:13;;;;;;;17.13;12.32;;;13.50;99.90;;;;;;5059677;28;20036;-93
2022/07/11 03:22:39;;;;;;;15.75;12.45;;;13.50;99.90;;;;;;5075983;28;20024;-92
2022/07/11 03:25:06;;;;;;;19.55;13.40;;;13.50;99.90;;;;;;5059843;28;20033;-94
2022/07/11 03:27:32;;;;;;;22.00;13.23;;;13.50;99.90;;;;;;5060564;28;20100;-93
2022/07/11 03:29:58;;;;;;;20.90;14.10;;;13.50;99.90;;;;;;5060036;28;20028;-92
2022/07/11 03:32:27;;;;;;;17.30;13.60;;;13.50;99.90;;;;;;5059614;28;20024;-91
2022/07/11 03:37:37;;;;;;;22.85;14.05;;;13.50;99.90;;;;;;5074235;28;20487;-91
2022/07/11 03:40:03;;;;;;;22.88;14.95;;;13.50;99.90;;;;;;5059156;28;20039;-90
2022/07/11 03:42:29;;;;;;;22.63;15.45;;;13.40;99.90;;;;;;5060562;28;20402;-90
2022/07/11 03:44:54;;;;;;;18.40;14.30;;;13.40;99.90;;;;;;5060715;28;20119;-90
2022/07/11 03:47:20;;;;;;;21.08;16.08;;;13.40;99.90;;;;;;5060958;28;20116;-91
2022/07/11 03:49:47;;;;;;;21.50;15.88;;;13.50;99.90;;;;;;5060283;28;20025;-90
2022/07/11 03:52:13;;;;;;;20.08;14.35;;;13.50;99.90;;;;;;5060241;28;20032;-92
2022/07/11 03:54:39;;;;;;;20.67;15.75;;;13.50;99.90;;;;;;5060369;28;20028;-90
2022/07/11 03:57:06;;;;;;;20.92;14.65;;;13.60;99.90;;;;;;5060517;28;20069;-91
2022/07/11 03:59:31;;;;;;;20.55;14.40;;;13.60;99.90;;;;;;5060141;28;20039;-89
2022/07/11 04:01:57;;;;;;;22.48;14.45;;;13.60;99.90;;;;;;5093809;28;20032;-91
2022/07/11 04:04:23;;;;;;;16.88;13.90;;;13.70;99.90;;;;;;5076420;28;20032;-90
2022/07/11 04:06:48;;;;;;;18.85;13.18;;;13.70;99.90;;;;;;5059601;28;20553;-91
2022/07/11 04:09:14;;;;;;;16.67;12.50;;;13.70;99.90;;;;;;5059592;28;20484;-92
2022/07/11 04:11:40;;;;;;;17.13;11.07;;;13.70;99.90;;;;;;5094220;28;20043;-92
2022/07/11 04:14:06;;;;;;;21.77;11.60;;;13.80;99.90;;;;;;5059650;28;20024;-89
2022/07/11 04:16:31;;;;;;;15.80;11.75;;;13.80;99.90;;;;;;5076447;28;20085;-91
2022/07/11 04:18:57;;;;;;;15.05;11.45;;;13.90;99.90;;;;;;5059883;28;20459;-90
2022/07/11 04:21:23;;;;;;;13.18;10.88;;;13.90;99.90;;;;;;5076590;28;20388;-91
2022/07/11 04:23:48;;;;;;;15.57;10.30;;;14.00;99.90;;;;;;5092656;28;20097;-91
2022/07/11 04:26:14;;;;;;;14.25;9.90;;;14.00;99.90;;;;;;5059866;28;20044;-91
2022/07/11 04:28:40;;;;;;;12.93;9.77;;;14.10;99.90;;;;;;5059851;28;20056;-92
2022/07/11 04:31:06;;;;;;;19.00;9.70;;;14.10;99.90;;;;;;5076021;28;20039;-91
2022/07/11 04:33:32;;;;;;;15.38;10.30;;;14.10;99.90;;;;;;5059785;28;20056;-91
2022/07/11 04:35:57;;;;;;;14.27;10.85;;;14.20;99.90;;;;;;5093033;28;20036;-90
2022/07/11 04:38:23;;;;;;;12.18;8.98;;;14.20;99.90;;;;;;5059602;28;20469;-91
2022/07/11 04:40:49;;;;;;;11.05;8.13;;;14.20;99.90;;;;;;5075888;28;20047;-90
2022/07/11 04:43:16;;;;;;;10.50;7.78;;;14.20;99.90;;;;;;5059253;28;20024;-90
2022/07/11 04:45:41;;;;;;;8.80;6.68;;;14.20;99.90;;;;;;5092734;28;20115;-90
2022/07/11 04:48:07;;;;;;;10.98;6.97;;;14.20;99.90;;;;;;5059225;28;20044;-91
2022/07/11 04:50:33;;;;;;;7.60;6.43;;;14.30;99.90;;;;;;5059067;28;20031;-92
2022/07/11 04:52:58;;;;;;;9.50;6.53;;;14.30;99.90;;;;;;5059728;28;20464;-90
2022/07/11 04:55:24;;;;;;;9.30;6.50;;;14.30;99.90;;;;;;5060426;28;20036;-90
2022/07/11 04:57:53;;;;;;;8.80;7.03;;;14.30;99.90;;;;;;5076162;28;20062;-91
2022/07/11 05:00:19;;;;;;;7.90;6.65;;;14.40;99.90;;;;;;5092149;28;20029;-91
2022/07/11 05:02:45;;;;;;;8.45;6.07;;;14.40;99.90;;;;;;5075586;28;20029;-90
2022/07/11 05:05:11;;;;;;;7.40;6.18;;;14.50;99.90;;;;;;5059027;28;20055;-92
2022/07/11 05:07:37;;;;;;;9.85;6.30;;;14.60;99.90;;;;;;5058307;28;20028;-90
2022/07/11 05:10:04;;;;;;;8.80;6.68;;;14.60;99.90;;;;;;5058355;28;20074;-91
2022/07/11 05:12:30;;;;;;;9.02;6.03;;;14.60;99.90;;;;;;5058600;28;20081;-90
2022/07/11 05:14:58;;;;;;;9.15;6.40;;;14.60;99.90;;;;;;5075091;28;20119;-90
2022/07/11 05:17:25;;;;;;;6.45;5.22;;;14.60;99.90;;;;;;5057982;28;20119;-90
2022/07/11 05:19:50;;;;;;;7.22;4.68;;;14.70;99.90;;;;;;5058369;28;20114;-91
2022/07/11 05:22:16;;;;;;;4.80;4.05;;;14.80;99.90;;;;;;5058238;28;20464;-90
2022/07/11 05:24:42;;;;;;;12.15;4.22;;;14.90;99.90;;;;;;5074749;28;20036;-91
2022/07/11 05:27:07;;;;;;;4.50;4.10;;;15.00;99.90;;;;;;5058596;28;20028;-90
2022/07/11 05:29:33;;;;;;;4.50;3.58;;;15.10;99.90;;;;;;5058189;28;20029;-90
2022/07/11 05:31:59;;;;;;;4.88;4.38;;;15.20;99.90;;;;;;5074732;28;20048;-90
2022/07/11 05:34:25;;;;;;;5.85;4.53;;;15.30;99.90;;;;;;5075133;28;20028;-90
2022/07/11 05:36:52;;;;;;;7.25;5.45;;;15.20;99.90;;;;;;5058235;28;20037;-91
2022/07/11 05:39:17;;;;;;;6.28;5.40;;;15.20;99.90;;;;;;5058094;28;20110;-91
2022/07/11 05:41:43;;;;;;;5.72;4.55;;;15.20;99.90;;;;;;5074555;28;20048;-90
2022/07/11 05:44:09;;;;;;;7.13;5.18;;;15.40;99.90;;;;;;5074458;28;20376;-90
2022/07/11 05:46:39;;;;;;;6.15;4.70;;;15.60;99.90;;;;;;5074636;28;20490;-91
2022/07/11 05:49:06;;;;;;;5.75;4.80;;;15.80;99.90;;;;;;5058051;28;20032;-91
2022/07/11 05:51:32;;;;;;;6.55;5.03;;;16.00;99.90;;;;;;5058087;28;20016;-91
2022/07/11 05:53:58;;;;;;;8.35;4.78;;;16.20;99.90;;;;;;5074679;28;20495;-91
2022/07/11 05:56:23;;;;;;;6.13;4.55;;;16.40;99.90;;;;;;5091389;28;20439;-91
2022/07/11 05:58:49;;;;;;;6.25;4.70;;;16.50;99.90;;;;;;5057712;28;20037;-92
2022/07/11 06:01:15;;;;;;;5.13;4.63;;;16.70;99.90;;;;;;5091401;28;20365;-91
2022/07/11 06:03:40;;;;;;;4.20;3.80;;;16.70;99.90;;;;;;5057179;28;20031;-90
2022/07/11 06:06:06;;;;;;;9.23;4.22;;;16.90;99.90;;;;;;5075468;28;20032;-91
2022/07/11 06:08:41;;;;;;;7.50;4.30;;;16.90;99.90;;;;;;5057914;28;20056;-91
2022/07/11 06:11:08;;;;;;;4.47;3.80;;;16.90;99.90;;;;;;5091651;28;20036;-90
2022/07/11 06:13:36;;;;;;;5.82;4.40;;;16.90;99.90;;;;;;5057913;28;20025;-91
2022/07/11 06:16:02;;;;;;;7.13;4.40;;;17.00;99.90;;;;;;5057902;28;20031;-90
2022/07/11 06:18:28;;;;;;;10.13;4.40;;;17.00;99.90;;;;;;5090644;28;20016;-91
2022/07/11 06:20:53;;;;;;;6.13;4.28;;;17.20;99.90;;;;;;5057696;28;20066;-91
2022/07/11 06:23:19;;;;;;;6.00;4.35;;;17.30;99.90;;;;;;5057823;28;20391;-91
2022/07/11 06:25:44;;;;;;;6.60;4.55;;;17.20;99.90;;;;;;5058213;28;20031;-91
2022/07/11 06:28:10;;;;;;;5.63;4.80;;;16.90;99.90;;;;;;5074882;28;20035;-92
2022/07/11 06:30:36;;;;;;;5.40;4.90;;;16.80;99.90;;;;;;5057818;28;20029;-92
2022/07/11 06:33:03;;;;;;;7.15;5.03;;;16.70;99.90;;;;;;5057999;28;20025;-91
2022/07/11 06:35:29;;;;;;;10.40;5.68;;;16.70;99.90;;;;;;5057726;28;20094;-92
2022/07/11 06:37:56;;;;;;;5.15;4.57;;;16.90;99.90;;;;;;5091638;28;20028;-91
2022/07/11 06:40:23;;;;;;;5.47;4.93;;;17.00;99.90;;;;;;5091635;28;20033;-91
2022/07/11 06:42:49;;;;;;;5.20;4.70;;;17.10;99.90;;;;;;5058279;28;20086;-91
2022/07/11 06:45:15;;;;;;;4.72;3.72;;;17.30;99.90;;;;;;5091467;28;20032;-91
2022/07/11 06:47:40;;;;;;;4.65;4.10;;;17.40;99.90;;;;;;5091904;28;20024;-93
2022/07/11 06:50:07;;;;;;;4.78;3.85;;;17.60;99.90;;;;;;5058269;28;20035;-91
2022/07/11 06:52:32;;;;;;;4.57;4.18;;;18.00;99.90;;;;;;5074975;28;20113;-92
2022/07/11 06:54:58;;;;;;;4.60;4.10;;;18.40;99.90;;;;;;5057988;28;20024;-92
2022/07/11 06:57:24;;;;;;;4.78;3.53;;;18.40;99.90;;;;;;5058250;28;20119;-92
2022/07/11 06:59:50;;;;;;;6.13;4.43;;;18.60;99.90;;;;;;5075105;28;20032;-91
2022/07/11 07:02:16;;;;;;;8.00;3.95;;;18.70;99.90;;;;;;5073946;28;20033;-92
2022/07/11 07:04:42;;;;;;;7.63;4.30;;;18.60;99.90;;;;;;5057866;28;20032;-91
2022/07/11 07:07:07;;;;;;;7.55;4.15;;;18.60;99.90;;;;;;5074163;28;20112;-91
2022/07/11 07:09:33;;;;;;;8.70;5.13;;;18.60;99.90;;;;;;5057716;28;20112;-91
2022/07/11 07:11:59;;;;;;;10.70;4.55;;;18.40;99.90;;;;;;5057867;28;20468;-92
2022/07/11 07:14:25;;;;;;;9.55;4.30;;;18.40;99.90;;;;;;5077100;28;20033;-92
2022/07/11 07:16:50;;;;;;;9.18;5.05;;;18.50;99.90;;;;;;5078704;28;20032;-93
2022/07/11 07:19:16;;;;;;;11.60;5.78;;;18.60;99.90;;;;;;5062401;28;20138;-92
2022/07/11 07:21:42;;;;;;;10.20;5.97;;;18.90;99.90;;;;;;5061836;28;20037;-91
2022/07/11 07:24:07;;;;;;;9.05;5.70;;;19.10;99.90;;;;;;5078673;28;20527;-93
2022/07/11 07:26:36;;;;;;;13.88;6.00;;;19.50;99.90;;;;;;5061580;28;20025;-93
2022/07/11 07:29:02;;;;;;;6.50;5.20;;;19.50;99.90;;;;;;5061754;28;20115;-92
2022/07/11 07:31:28;;;;;;;6.60;4.97;;;19.70;99.90;;;;;;5078557;28;20066;-94
2022/07/11 07:33:53;;;;;;;9.30;6.13;;;19.90;99.90;;;;;;5062111;28;20118;-92
2022/07/11 07:36:19;;;;;;;8.43;5.60;;;20.20;99.90;;;;;;5078063;28;20038;-90
2022/07/11 07:38:47;;;;;;;11.77;6.50;;;20.30;99.90;;;;;;5062299;28;20418;-94
2022/07/11 07:41:14;;;;;;;12.68;5.95;;;20.10;99.90;;;;;;5061537;28;20036;-91
2022/07/11 07:43:41;;;;;;;11.25;6.35;;;20.10;99.90;;;;;;5061523;28;20021;-92
2022/07/11 07:46:10;;;;;;;10.27;6.35;;;19.60;99.90;;;;;;5061079;28;20033;-92
2022/07/11 07:48:37;;;;;;;11.13;6.10;;;19.20;99.90;;;;;;5061516;28;20101;-92
2022/07/11 07:51:03;;;;;;;9.90;6.35;;;19.00;99.90;;;;;;5062150;28;20124;-94
2022/07/11 07:53:29;;;;;;;11.18;6.32;;;18.80;99.90;;;;;;5095225;28;20052;-91
2022/07/11 07:55:55;;;;;;;9.05;5.85;;;19.00;99.90;;;;;;5077906;28;20032;-91
2022/07/11 07:58:20;;;;;;;10.85;6.57;;;19.10;99.90;;;;;;5095096;28;20035;-91
2022/07/11 08:01:36;;;;;;;8.45;6.15;;;19.30;99.90;;;;;;5060933;28;20037;-92
2022/07/11 08:04:04;;;;;;;8.20;5.65;;;19.80;99.90;;;;;;5061107;28;20035;-92
2022/07/11 08:06:29;;;;;;;7.50;5.20;;;20.00;99.90;;;;;;5094882;28;20036;-91
2022/07/11 08:08:55;;;;;;;10.35;5.70;;;20.40;99.90;;;;;;5094457;28;20036;-92
2022/07/11 08:11:21;;;;;;;6.68;5.35;;;20.40;99.90;;;;;;5093638;28;20021;-92
2022/07/11 08:13:48;;;;;;;8.02;6.47;;;20.20;99.90;;;;;;5060754;28;20124;-91
2022/07/11 08:16:14;;;;;;;6.25;5.18;;;20.70;99.90;;;;;;5076609;28;20036;-92
2022/07/11 08:18:39;;;;;;;8.27;4.63;;;21.50;99.90;;;;;;5094329;28;20429;-90
2022/07/11 08:21:05;;;;;;;7.15;5.38;;;21.60;99.90;;;;;;5076895;28;20040;-92
2022/07/11 08:24:15;;;;;;;16.63;4.88;;;21.30;99.90;;;;;;5060224;28;20029;-94
2022/07/11 08:26:40;;;;;;;6.57;4.57;;;20.60;99.90;;;;;;5077667;28;20096;-92
2022/07/11 08:29:06;;;;;;;11.40;4.82;;;19.70;99.90;;;;;;5061347;28;20020;-94
2022/07/11 08:31:32;;;;;;;7.35;4.90;;;19.10;99.90;;;;;;5060734;28;20476;-90
2022/07/11 08:33:58;;;;;;;11.88;6.43;;;18.80;99.90;;;;;;5093169;28;20396;-91
2022/07/11 08:36:24;;;;;;;8.43;5.10;;;18.50;99.90;;;;;;5059699;28;20071;-89
2022/07/11 08:38:49;;;;;;;12.63;5.28;;;18.40;99.90;;;;;;5092721;28;20422;-91
2022/07/11 08:41:18;;;;;;;7.47;4.97;;;18.20;99.90;;;;;;5059760;28;20121;-93
2022/07/11 08:43:44;;;;;;;11.48;5.80;;;18.10;99.90;;;;;;5076121;28;20033;-91
2022/07/11 08:46:11;;;;;;;7.03;4.93;;;18.30;99.90;;;;;;5076308;28;20031;-90
2022/07/11 08:48:40;;;;;;;8.57;5.80;;;18.50;99.90;;;;;;5059633;28;20123;-91
2022/07/11 08:51:08;;;;;;;10.65;4.97;;;19.10;99.90;;;;;;5059564;28;20025;-93
2022/07/11 08:53:39;;;;;;;8.00;5.63;;;19.30;99.90;;;;;;5059929;28;20029;-90
2022/07/11 08:56:10;;;;;;;8.48;4.07;;;19.50;99.90;;;;;;5059722;28;20028;-91
2022/07/11 08:58:38;;;;;;;9.65;5.00;;;19.80;99.90;;;;;;5059472;28;20037;-91
2022/07/11 09:01:05;;;;;;;6.22;4.50;;;20.40;99.90;;;;;;5058746;28;20033;-89
2022/07/11 09:03:31;;;;;;;5.68;4.40;;;20.90;99.90;;;;;;5075971;28;20024;-92
2022/07/11 09:06:41;;;;;;;7.85;4.50;;;21.10;99.90;;;;;;5058797;28;20033;-90
2022/07/11 09:09:06;;;;;;;7.55;4.30;;;21.20;99.90;;;;;;5058906;28;20033;-91
2022/07/11 09:11:51;;;;;;;7.03;4.22;;;21.50;99.90;;;;;;5059019;28;20044;-90
2022/07/11 09:14:28;;;;;;;6.05;4.43;;;21.80;99.90;;;;;;5059358;28;20063;-91
2022/07/11 09:16:57;;;;;;;4.25;3.00;;;21.80;99.90;;;;;;5075309;28;20029;-92
2022/07/11 09:19:25;;;;;;;8.50;3.97;;;22.80;99.90;;;;;;5091813;28;20544;-92
2022/07/11 09:28:01;;;;;;;5.85;3.63;;;24.20;99.90;;;;;;5077644;28;20024;-93
2022/07/11 09:30:29;;;;;;;4.32;3.25;;;24.50;99.90;;;;;;5092513;28;20499;-93
2022/07/11 09:33:01;;;;;;;6.72;3.40;;;23.90;99.90;;;;;;5058973;28;20070;-92
2022/07/11 09:35:38;;;;;;;3.85;3.08;;;23.00;99.90;;;;;;5059113;28;20036;-93
2022/07/11 09:38:08;;;;;;;6.10;3.92;;;22.70;99.90;;;;;;5058757;28;20028;-93
2022/07/11 09:40:35;;;;;;;8.40;3.63;;;22.40;99.90;;;;;;5092873;28;20043;-94
2022/07/11 09:43:31;;;;;;;7.60;3.78;;;21.70;99.90;;;;;;5092606;28;20033;-93
2022/07/11 09:46:06;;;;;;;8.07;4.25;;;21.00;99.90;;;;;;5058670;28;20033;-92
2022/07/11 09:48:32;;;;;;;6.35;4.10;;;20.50;99.90;;;;;;5092733;28;20033;-91
2022/07/11 09:51:04;;;;;;;5.30;3.92;;;20.30;99.90;;;;;;5075631;28;20036;-94
2022/07/11 09:53:31;;;;;;;6.47;3.90;;;20.20;99.90;;;;;;5058239;28;20434;-94
2022/07/11 09:55:57;;;;;;;7.53;4.03;;;20.20;99.90;;;;;;5058257;28;20028;-92
2022/07/11 09:58:29;;;;;;;7.18;5.00;;;20.20;99.90;;;;;;5057918;28;20024;-93
2022/07/11 10:00:55;;;;;;;6.88;4.63;;;20.30;99.90;;;;;;5075078;28;20032;-92
2022/07/11 10:03:23;;;;;;;6.47;4.30;;;20.50;99.90;;;;;;5057937;28;20051;-93
2022/07/11 10:05:49;;;;;;;4.88;3.80;;;21.20;99.90;;;;;;5091678;28;20063;-92
2022/07/11 10:08:14;;;;;;;4.82;3.38;;;22.50;99.90;;;;;;5091510;28;20021;-93
2022/07/11 10:10:40;;;;;;;7.35;3.90;;;23.30;99.90;;;;;;5058226;28;20032;-92
2022/07/11 10:13:06;;;;;;;5.55;3.03;;;24.00;99.90;;;;;;5058267;28;20036;-92
2022/07/11 10:15:35;;;;;;;5.28;2.70;;;24.20;99.90;;;;;;5074976;28;20113;-93
2022/07/11 10:18:29;;;;;;;3.70;2.72;;;23.90;99.90;;;;;;5075416;28;20035;-93
2022/07/11 10:21:09;;;;;;;4.55;2.72;;;23.40;99.90;;;;;;5058465;28;20507;-92
2022/07/11 10:23:47;;;;;;;4.13;2.90;;;23.20;99.90;;;;;;5058342;28;20025;-92
2022/07/11 10:26:54;;;;;;;5.15;2.63;;;23.20;99.90;;;;;;5076340;28;20032;-93
2022/07/11 10:29:36;;;;;;;4.55;2.75;;;23.00;99.90;;;;;;5058284;28;20078;-93
2022/07/11 10:32:06;;;;;;;7.10;2.78;;;23.10;99.90;;;;;;5058878;28;20028;-93
2022/07/11 10:34:32;;;;;;;3.17;2.75;;;23.00;99.90;;;;;;5059193;28;20476;-94
2022/07/11 10:37:04;;;;;;;4.85;2.88;;;22.30;99.90;;;;;;5058212;28;20073;-93
2022/07/11 10:39:37;;;;;;;5.15;2.95;;;22.30;99.90;;;;;;5075634;28;20040;-93
2022/07/11 10:42:05;;;;;;;5.78;3.33;;;22.50;99.90;;;;;;5075664;28;20025;-93
2022/07/11 10:44:51;;;;;;;3.65;2.53;;;22.50;99.90;;;;;;5093017;28;20029;-92
2022/07/11 10:47:41;;;;;;;5.15;2.88;;;22.80;99.90;;;;;;5058443;28;20029;-92
2022/07/11 10:50:21;;;;;;;3.25;2.67;;;22.70;99.90;;;;;;5065082;28;20033;-94
2022/07/11 10:52:49;;;;;;;5.28;2.92;;;22.90;99.90;;;;;;5081344;28;20029;-92
2022/07/11 10:55:52;;;;;;;3.70;2.67;;;22.50;99.90;;;;;;5065301;28;20086;-92
2022/07/11 10:58:31;;;;;;;3.65;2.70;;;22.40;99.90;;;;;;5081799;28;20101;-93
2022/07/11 11:01:12;;;;;;;5.60;3.25;;;22.90;99.90;;;;;;5065197;28;20072;-94
2022/07/11 11:03:38;;;;;;;3.97;2.35;;;23.60;99.90;;;;;;5065256;28;20032;-93
2022/07/11 11:06:04;;;;;;;6.22;2.65;;;24.20;99.90;;;;;;5082100;28;20033;-94
2022/07/11 11:08:34;;;;;;;2.85;2.22;;;25.00;99.90;;;;;;5081732;28;20084;-93
2022/07/11 11:11:05;;;;;;;3.65;2.40;;;25.60;99.90;;;;;;5065293;28;20142;-95
2022/07/11 11:13:35;;;;;;;3.08;2.30;;;25.40;99.90;;;;;;5082245;28;20032;-94
2022/07/11 11:16:02;;;;;;;3.85;2.25;;;25.50;99.90;;;;;;5065107;28;20036;-94
2022/07/11 11:18:36;;;;;;;2.33;2.00;;;24.90;99.90;;;;;;5065514;28;20028;-93
2022/07/11 11:21:08;;;;;;;4.68;2.08;;;24.70;99.90;;;;;;5099262;28;20077;-91
2022/07/11 11:23:38;;;;;;;2.03;1.77;;;24.70;99.90;;;;;;5064988;28;20024;-93
2022/07/11 11:26:24;;;;;;;2.58;1.98;;;24.30;99.90;;;;;;5081673;28;20025;-93
2022/07/11 11:29:01;;;;;;;4.18;2.60;;;24.40;99.90;;;;;;5082377;28;20036;-94
2022/07/11 11:31:31;;;;;;;3.08;1.98;;;24.10;99.90;;;;;;5065698;28;20070;-93
2022/07/11 11:33:59;;;;;;;7.78;2.67;;;23.80;99.90;;;;;;5066041;28;20032;-93
2022/07/11 11:36:26;;;;;;;2.25;2.05;;;23.50;99.90;;;;;;5098899;28;20028;-93
2022/07/11 11:38:52;;;;;;;3.83;2.17;;;23.70;99.90;;;;;;5083402;28;20063;-91
2022/07/11 11:41:27;;;;;;;2.30;1.70;;;24.10;99.90;;;;;;5065635;28;20119;-96
2022/07/11 11:43:54;;;;;;;3.42;2.20;;;24.30;99.90;;;;;;5065966;28;20032;-94
2022/07/11 11:46:24;;;;;;;3.25;2.22;;;25.00;99.90;;;;;;5065079;28;20032;-92
2022/07/11 11:48:58;;;;;;;2.53;1.98;;;25.20;99.90;;;;;;5065642;28;20037;-94
2022/07/11 11:51:26;;;;;;;2.55;1.90;;;25.50;99.90;;;;;;5066276;28;20039;-94
2022/07/11 11:53:54;;;;;;;2.88;2.33;;;25.20;99.90;;;;;;5083308;28;20031;-92
2022/07/11 11:56:32;;;;;;;5.40;2.03;;;24.80;99.90;;;;;;5065921;28;20028;-93
2022/07/11 11:59:07;;;;;;;3.80;1.92;;;24.00;99.90;;;;;;5082525;28;20542;-92
2022/07/11 12:01:35;;;;;;;4.55;2.08;;;23.20;99.90;;;;;;5094947;28;20033;-92
2022/07/11 12:04:09;;;;;;;5.03;2.08;;;22.80;99.90;;;;;;5062282;28;20444;-93
2022/07/11 12:06:43;;;;;;;2.17;1.90;;;22.50;99.90;;;;;;5063242;28;20028;-93
2022/07/11 12:09:17;;;;;;;2.13;1.73;;;22.60;99.90;;;;;;5063424;28;20028;-93
2022/07/11 12:11:45;;;;;;;4.10;1.77;;;22.90;99.90;;;;;;5062363;28;20028;-92
2022/07/11 12:14:12;;;;;;;2.30;2.00;;;23.10;99.90;;;;;;5062333;28;20477;-93
2022/07/11 12:16:43;;;;;;;3.25;2.00;;;23.00;99.90;;;;;;5062692;28;20123;-94
2022/07/11 12:19:12;;;;;;;3.15;2.05;;;23.00;99.90;;;;;;5079089;28;20075;-91
2022/07/11 12:21:40;;;;;;;2.00;1.80;;;23.30;99.90;;;;;;5063054;28;20468;-93
2022/07/11 12:24:10;;;;;;;2.65;2.10;;;23.50;99.90;;;;;;5063763;28;20056;-93
2022/07/11 12:26:38;;;;;;;2.33;1.80;;;23.90;99.90;;;;;;5096871;28;20033;-92
2022/07/11 12:29:07;;;;;;;3.42;2.47;;;24.30;99.90;;;;;;5061670;28;20025;-93
2022/07/11 12:31:43;;;;;;;2.53;2.05;;;24.40;99.90;;;;;;5061717;28;20025;-92
2022/07/11 12:34:08;;;;;;;6.03;1.92;;;24.40;99.90;;;;;;5062156;28;20042;-94
2022/07/11 12:36:34;;;;;;;3.03;2.15;;;24.60;99.90;;;;;;5062228;28;20462;-93
2022/07/11 12:39:00;;;;;;;3.45;2.05;;;24.70;99.90;;;;;;5062370;28;20036;-96
2022/07/11 12:41:28;;;;;;;2.35;2.03;;;24.80;99.90;;;;;;5062306;28;20036;-94
2022/07/11 12:46:39;;;;;;;4.55;2.20;;;25.60;99.90;;;;;;5078198;28;20032;-92
2022/07/11 12:49:07;;;;;;;4.65;2.00;;;25.70;99.90;;;;;;5062056;28;20039;-94
2022/07/11 12:51:40;;;;;;;2.40;1.80;;;26.10;99.90;;;;;;5061886;28;20056;-93
2022/07/11 12:54:08;;;;;;;2.22;1.92;;;26.50;99.90;;;;;;5061914;28;20032;-94
2022/07/11 12:56:35;;;;;;;5.05;3.67;;;26.50;99.90;;;;;;5061645;28;20051;-94
2022/07/11 12:59:02;;;;;;;4.80;2.83;;;26.00;99.90;;;;;;5061183;28;20056;-94
2022/07/11 13:01:29;;;;;;;8.52;2.40;;;25.50;99.90;;;;;;5093775;28;20024;-92
2022/07/11 13:03:55;;;;;;;2.70;1.50;;;25.50;99.90;;;;;;5076922;28;20028;-92